createdAt,value
2017-05-21T00:02:06.013Z,62.00
2017-05-21T00:04:35.059Z,61.70
2017-05-21T00:07:04.105Z,61.90
2017-05-21T00:09:33.149Z,62.10
2017-05-21T00:12:02.221Z,62.50
2017-05-21T00:14:31.286Z,62.40
2017-05-21T00:17:00.315Z,63.00
2017-05-21T00:19:29.357Z,63.10
2017-05-21T00:21:58.402Z,62.40
2017-05-21T00:24:27.467Z,62.70
2017-05-21T00:26:56.542Z,63.50
2017-05-21T00:29:25.584Z,64.10
2017-05-21T00:31:54.619Z,63.80
2017-05-21T00:34:23.762Z,64.80
2017-05-21T00:36:52.835Z,65.40
2017-05-21T00:39:21.850Z,65.60
2017-05-21T00:41:50.936Z,65.20
2017-05-21T00:44:19.949Z,65.80
2017-05-21T00:46:49.016Z,66.20
2017-05-21T00:49:18.090Z,65.50
2017-05-21T00:51:47.110Z,65.50
2017-05-21T00:54:16.236Z,66.10
2017-05-21T00:56:45.385Z,66.40
2017-05-21T00:59:14.524Z,66.80
2017-05-21T01:01:43.518Z,67.00
2017-05-21T01:04:12.674Z,67.80
2017-05-21T01:06:41.685Z,67.20
2017-05-21T01:09:10.724Z,67.50
2017-05-21T01:11:39.791Z,68.00
2017-05-21T01:14:08.817Z,67.80
2017-05-21T01:16:37.914Z,67.10
2017-05-21T01:19:06.958Z,66.20
2017-05-21T01:21:35.986Z,66.40
2017-05-21T01:24:05.125Z,66.50
2017-05-21T01:26:34.192Z,66.80
2017-05-21T01:29:03.210Z,67.00
2017-05-21T01:31:32.363Z,66.90
2017-05-21T01:34:01.394Z,67.30
2017-05-21T01:36:30.412Z,67.50
2017-05-21T01:38:59.446Z,68.10
2017-05-21T01:41:28.498Z,68.30
2017-05-21T01:43:57.574Z,67.80
2017-05-21T01:46:26.606Z,67.10
2017-05-21T01:48:55.826Z,67.10
2017-05-21T01:51:24.818Z,66.80
2017-05-21T01:53:53.835Z,66.50
2017-05-21T01:56:22.914Z,66.10
2017-05-21T01:58:52.045Z,66.00
2017-05-21T02:01:21.150Z,66.00
2017-05-21T02:03:50.193Z,66.00
2017-05-21T02:06:19.210Z,66.00
2017-05-21T02:08:48.238Z,66.50
2017-05-21T02:11:17.299Z,66.20
2017-05-21T02:13:46.329Z,65.90
2017-05-21T02:16:15.426Z,65.80
2017-05-21T02:18:44.777Z,65.80
2017-05-21T02:21:13.793Z,65.60
2017-05-21T02:23:42.898Z,66.00
2017-05-21T02:26:12.037Z,66.60
2017-05-21T02:28:41.026Z,66.40
2017-05-21T02:31:10.070Z,67.20
2017-05-21T02:33:39.182Z,67.50
2017-05-21T02:36:08.202Z,67.40
2017-05-21T02:38:37.230Z,67.70
2017-05-21T02:41:06.325Z,67.60
2017-05-21T02:43:35.345Z,66.80
2017-05-21T02:46:04.363Z,66.30
2017-05-21T02:48:33.421Z,66.20
2017-05-21T02:51:02.439Z,66.40
2017-05-21T02:53:31.478Z,67.00
2017-05-21T02:56:00.531Z,68.20
2017-05-21T02:58:29.637Z,70.40
2017-05-21T03:00:58.642Z,69.30
2017-05-21T03:03:27.792Z,69.30
2017-05-21T03:05:56.885Z,70.70
2017-05-21T03:08:25.981Z,69.60
2017-05-21T03:10:55.042Z,69.10
2017-05-21T03:13:24.070Z,69.40
2017-05-21T03:15:53.081Z,69.00
2017-05-21T03:18:22.154Z,68.40
2017-05-21T03:20:51.171Z,67.90
2017-05-21T03:23:20.200Z,67.40
2017-05-21T03:25:49.333Z,67.30
2017-05-21T03:28:18.442Z,67.60
2017-05-21T03:30:47.465Z,68.00
2017-05-21T03:33:16.559Z,68.50
2017-05-21T03:35:45.614Z,68.90
2017-05-21T03:38:14.635Z,70.70
2017-05-21T03:40:43.684Z,71.10
2017-05-21T03:43:12.734Z,71.30
2017-05-21T03:45:41.741Z,71.50
2017-05-21T03:48:10.795Z,72.50
2017-05-21T03:50:39.801Z,72.90
2017-05-21T03:53:08.817Z,72.90
2017-05-21T03:55:37.866Z,73.00
2017-05-21T03:58:06.966Z,72.70
2017-05-21T04:00:36.461Z,71.60
2017-05-21T04:03:05.523Z,71.50
2017-05-21T04:05:34.550Z,71.30
2017-05-21T04:08:03.577Z,71.40
2017-05-21T04:10:32.737Z,71.20
2017-05-21T04:13:01.754Z,71.20
2017-05-21T04:15:30.775Z,70.90
2017-05-21T04:17:59.847Z,71.00
2017-05-21T04:20:28.878Z,70.90
2017-05-21T04:22:57.912Z,70.60
2017-05-21T04:25:26.983Z,70.30
2017-05-21T04:27:56.003Z,69.90
2017-05-21T04:30:25.088Z,69.80
2017-05-21T04:35:29.417Z,69.00
2017-05-21T04:37:58.461Z,68.70
2017-05-21T04:40:27.512Z,67.90
2017-05-21T04:42:56.527Z,67.40
2017-05-21T04:45:25.666Z,66.60
2017-05-21T04:47:54.698Z,66.60
2017-05-21T04:50:23.723Z,65.60
2017-05-21T04:52:52.761Z,65.40
2017-05-21T04:55:21.808Z,63.90
2017-05-21T04:57:50.914Z,63.10
2017-05-21T05:00:19.949Z,62.90
2017-05-21T05:02:48.968Z,62.00
2017-05-21T05:05:18.013Z,61.00
2017-05-21T05:07:47.146Z,60.70
2017-05-21T05:10:16.190Z,60.40
2017-05-21T05:12:45.236Z,60.20
2017-05-21T05:15:14.274Z,59.50
2017-05-21T05:17:43.298Z,59.30
2017-05-21T05:20:12.353Z,58.10
2017-05-21T05:22:41.405Z,58.00
2017-05-21T05:25:10.498Z,57.50
2017-05-21T05:27:39.595Z,56.90
2017-05-21T05:30:08.702Z,56.60
2017-05-21T05:32:37.794Z,56.20
2017-05-21T05:35:06.813Z,55.80
2017-05-21T05:37:35.923Z,55.20
2017-05-21T05:40:04.938Z,54.10
2017-05-21T05:42:33.955Z,53.10
2017-05-21T05:45:03.018Z,52.30
2017-05-21T05:47:32.051Z,49.50
2017-05-21T05:50:01.087Z,47.80
2017-05-21T05:52:30.130Z,46.00
2017-05-21T05:54:59.206Z,44.00
2017-05-21T05:57:28.235Z,41.10
2017-05-21T05:59:57.285Z,40.10
2017-05-21T06:02:26.310Z,39.60
2017-05-21T06:04:55.335Z,40.30
2017-05-21T06:07:24.535Z,41.60
2017-05-21T06:09:53.617Z,42.80
2017-05-21T06:12:22.662Z,43.90
2017-05-21T06:14:51.702Z,44.60
2017-05-21T06:17:20.750Z,46.10
2017-05-21T06:19:49.761Z,46.70
2017-05-21T06:22:18.838Z,47.50
2017-05-21T06:24:47.860Z,48.10
2017-05-21T06:27:16.962Z,48.30
2017-05-21T06:29:46.059Z,48.60
2017-05-21T06:32:15.075Z,48.60
2017-05-21T06:34:44.083Z,47.80
2017-05-21T06:37:13.139Z,48.30
2017-05-21T06:39:42.198Z,47.60
2017-05-21T06:42:11.233Z,47.10
2017-05-21T06:44:40.306Z,46.60
2017-05-21T06:47:09.416Z,45.90
2017-05-21T06:49:38.434Z,45.70
2017-05-21T06:52:07.497Z,44.30
2017-05-21T06:54:36.516Z,43.90
2017-05-21T06:57:05.538Z,43.20
2017-05-21T06:59:34.650Z,42.50
2017-05-21T07:02:03.667Z,41.80
2017-05-21T07:04:32.682Z,41.40
2017-05-21T07:07:01.739Z,41.30
2017-05-21T07:09:30.854Z,40.10
2017-05-21T07:11:59.861Z,39.40
2017-05-21T07:14:28.912Z,39.10
2017-05-21T07:16:57.932Z,39.50
2017-05-21T07:19:26.942Z,39.50
2017-05-21T07:21:56.001Z,39.40
2017-05-21T07:24:25.115Z,38.70
2017-05-21T07:26:54.135Z,38.60
2017-05-21T07:29:23.175Z,39.00
2017-05-21T07:31:52.198Z,40.30
2017-05-21T07:34:21.228Z,40.00
2017-05-21T07:36:50.294Z,40.30
2017-05-21T07:39:19.371Z,40.70
2017-05-21T07:41:48.390Z,41.10
2017-05-21T07:44:17.454Z,41.20
2017-05-21T07:46:46.541Z,42.00
2017-05-21T07:49:15.842Z,41.90
2017-05-21T07:51:44.889Z,42.00
2017-05-21T07:54:13.903Z,41.70
2017-05-21T07:56:42.931Z,41.60
2017-05-21T07:59:12.002Z,39.80
2017-05-21T08:01:40.999Z,38.70
2017-05-21T08:04:10.182Z,38.50
2017-05-21T08:06:39.246Z,37.50
2017-05-21T08:09:08.253Z,36.30
2017-05-21T08:11:37.281Z,35.10
2017-05-21T08:14:06.390Z,34.40
2017-05-21T08:16:35.399Z,33.20
2017-05-21T08:19:04.506Z,32.60
2017-05-21T08:21:33.556Z,32.10
2017-05-21T08:24:02.574Z,30.20
2017-05-21T08:26:31.601Z,29.90
2017-05-21T08:29:00.674Z,30.70
2017-05-21T08:31:29.764Z,30.00
2017-05-21T08:33:58.794Z,28.60
2017-05-21T08:36:27.095Z,28.60
2017-05-21T08:38:56.117Z,29.60
2017-05-21T08:41:25.135Z,29.00
2017-05-21T08:43:54.182Z,29.80
2017-05-21T08:46:23.198Z,29.30
2017-05-21T08:48:52.215Z,29.40
2017-05-21T08:51:21.322Z,28.90
2017-05-21T08:53:50.352Z,28.90
2017-05-21T08:56:19.386Z,30.40
2017-05-21T08:58:48.436Z,31.10
2017-05-21T09:01:17.449Z,29.50
2017-05-21T09:03:46.458Z,30.00
2017-05-21T09:06:15.497Z,30.50
2017-05-21T09:08:45.141Z,30.10
2017-05-21T09:11:14.145Z,30.60
2017-05-21T09:13:43.231Z,29.30
2017-05-21T09:16:12.406Z,31.00
2017-05-21T09:18:41.414Z,30.50
2017-05-21T09:21:10.497Z,30.70
2017-05-21T09:23:39.506Z,30.70
2017-05-21T09:26:08.533Z,31.00
2017-05-21T09:28:37.598Z,30.90
2017-05-21T09:31:06.694Z,32.20
2017-05-21T09:33:35.706Z,32.00
2017-05-21T09:36:04.746Z,31.20
2017-05-21T09:38:33.770Z,29.70
2017-05-21T09:41:02.790Z,29.50
2017-05-21T09:43:31.836Z,29.00
2017-05-21T09:46:00.845Z,30.30
2017-05-21T09:48:29.854Z,30.90
2017-05-21T09:50:58.897Z,31.20
2017-05-21T09:53:27.919Z,31.00
2017-05-21T09:55:56.925Z,30.80
2017-05-21T09:58:25.990Z,31.40
2017-05-21T10:00:55.120Z,32.80
2017-05-21T10:03:24.135Z,32.70
2017-05-21T10:05:53.195Z,33.60
2017-05-21T10:08:22.219Z,33.40
2017-05-21T10:10:51.212Z,34.20
2017-05-21T10:13:20.258Z,34.70
2017-05-21T10:15:49.278Z,34.00
2017-05-21T10:18:18.293Z,33.30
2017-05-21T10:20:47.350Z,32.40
2017-05-21T10:23:16.358Z,32.20
2017-05-21T10:25:45.384Z,32.50
2017-05-21T10:28:14.431Z,31.70
2017-05-21T10:30:43.547Z,31.90
2017-05-21T10:33:12.554Z,32.00
2017-05-21T10:35:41.605Z,28.70
2017-05-21T10:38:10.639Z,28.80
2017-05-21T10:40:39.666Z,28.20
2017-05-21T10:43:08.815Z,26.60
2017-05-21T10:45:37.828Z,26.60
2017-05-21T10:48:06.854Z,27.80
2017-05-21T10:50:35.909Z,28.60
2017-05-21T10:53:04.948Z,28.60
2017-05-21T10:55:33.966Z,29.60
2017-05-21T10:58:03.091Z,28.90
2017-05-21T11:00:32.168Z,26.90
2017-05-21T11:03:01.178Z,26.60
2017-05-21T11:05:30.221Z,27.80
2017-05-21T11:07:59.243Z,26.70
2017-05-21T11:10:28.253Z,26.80
2017-05-21T11:12:57.317Z,27.10
2017-05-21T11:15:26.381Z,26.80
2017-05-21T11:17:55.406Z,27.40
2017-05-21T11:20:24.454Z,28.40
2017-05-21T11:22:53.480Z,27.40
2017-05-21T11:25:22.705Z,28.30
2017-05-21T11:27:51.759Z,28.70
2017-05-21T11:30:20.781Z,28.90
2017-05-21T11:32:49.783Z,29.50
2017-05-21T11:35:18.878Z,29.30
2017-05-21T11:37:47.903Z,28.90
2017-05-21T11:40:16.918Z,28.10
2017-05-21T11:42:45.968Z,27.90
2017-05-21T11:45:15.055Z,28.10
2017-05-21T11:47:44.066Z,28.00
2017-05-21T11:50:13.151Z,28.20
2017-05-21T11:52:42.176Z,28.10
2017-05-21T11:55:11.194Z,28.70
2017-05-21T11:57:40.253Z,28.90
2017-05-21T12:00:09.270Z,28.70
2017-05-21T12:02:38.293Z,29.60
2017-05-21T12:05:07.407Z,28.40
2017-05-21T12:07:36.439Z,28.40
2017-05-21T12:10:05.543Z,28.80
2017-05-21T12:12:34.611Z,28.90
2017-05-21T12:15:03.633Z,29.30
2017-05-21T12:17:32.647Z,29.60
2017-05-21T12:20:01.710Z,29.40
2017-05-21T12:22:30.719Z,29.40
2017-05-21T12:24:59.738Z,29.70
2017-05-21T12:27:28.811Z,30.00
2017-05-21T12:29:57.836Z,30.80
2017-05-21T12:32:26.851Z,30.10
2017-05-21T12:34:55.931Z,30.80
2017-05-21T12:37:25.456Z,30.90
2017-05-21T12:39:54.530Z,30.60
2017-05-21T12:42:23.582Z,30.50
2017-05-21T12:44:52.599Z,30.30
2017-05-21T12:47:21.612Z,30.10
2017-05-21T12:49:50.700Z,30.00
2017-05-21T12:52:19.747Z,30.30
2017-05-21T12:54:48.771Z,29.90
2017-05-21T12:57:17.833Z,29.60
2017-05-21T12:59:46.959Z,30.30
2017-05-21T13:02:15.972Z,30.00
2017-05-21T13:04:45.018Z,30.10
2017-05-21T13:07:14.138Z,33.30
2017-05-21T13:09:43.171Z,34.20
2017-05-21T13:12:12.210Z,35.00
2017-05-21T13:14:41.344Z,34.30
2017-05-21T13:17:10.361Z,32.90
2017-05-21T13:19:39.449Z,33.20
2017-05-21T13:22:08.477Z,32.90
2017-05-21T13:24:37.490Z,33.40
2017-05-21T13:27:06.558Z,33.30
2017-05-21T13:29:35.599Z,33.20
2017-05-21T13:32:04.769Z,33.20
2017-05-21T13:34:33.845Z,34.00
2017-05-21T13:37:02.866Z,34.40
2017-05-21T13:39:31.977Z,33.60
2017-05-21T13:42:01.043Z,33.90
2017-05-21T13:44:30.060Z,33.70
2017-05-21T13:46:59.167Z,33.10
2017-05-21T13:49:28.223Z,33.40
2017-05-21T13:51:57.249Z,33.20
2017-05-21T13:54:26.255Z,32.80
2017-05-21T13:56:55.314Z,31.90
2017-05-21T13:59:24.314Z,31.90
2017-05-21T14:01:53.349Z,30.40
2017-05-21T14:04:22.413Z,31.10
2017-05-21T14:06:51.505Z,31.10
2017-05-21T14:09:20.528Z,30.90
2017-05-21T14:11:49.595Z,31.50
2017-05-21T14:14:18.606Z,31.90
2017-05-21T14:16:47.629Z,31.50
2017-05-21T14:19:16.712Z,32.40
2017-05-21T14:21:45.737Z,34.20
2017-05-21T14:24:14.745Z,34.90
2017-05-21T14:26:43.866Z,34.60
2017-05-21T14:29:12.972Z,34.20
2017-05-21T14:31:41.983Z,33.60
2017-05-21T14:34:11.041Z,32.50
2017-05-21T14:36:40.055Z,32.40
2017-05-21T14:39:09.127Z,32.70
2017-05-21T14:41:38.233Z,32.30
2017-05-21T14:44:07.266Z,32.80
2017-05-21T14:46:36.269Z,32.70
2017-05-21T14:49:05.389Z,32.80
2017-05-21T14:51:34.508Z,32.60
2017-05-21T14:54:03.527Z,33.10
2017-05-21T14:56:32.733Z,34.40
2017-05-21T14:59:01.743Z,34.40
2017-05-21T15:01:30.877Z,34.40
2017-05-21T15:03:59.915Z,33.30
2017-05-21T15:06:28.966Z,33.30
2017-05-21T15:08:57.984Z,32.60
2017-05-21T15:11:27.022Z,32.40
2017-05-21T15:13:56.133Z,32.20
2017-05-21T15:16:25.181Z,31.60
2017-05-21T15:18:54.234Z,31.50
2017-05-21T15:21:23.340Z,30.90
2017-05-21T15:23:52.360Z,31.60
2017-05-21T15:26:21.477Z,31.10
2017-05-21T15:28:50.505Z,31.00
2017-05-21T15:31:19.605Z,31.30
2017-05-21T15:33:48.735Z,31.70
2017-05-21T15:36:17.762Z,31.90
2017-05-21T15:38:46.780Z,32.10
2017-05-21T15:41:15.856Z,32.60
2017-05-21T15:43:44.854Z,33.00
2017-05-21T15:46:13.900Z,33.30
2017-05-21T15:48:43.081Z,33.30
2017-05-21T15:51:12.118Z,32.60
2017-05-21T15:53:41.171Z,32.20
2017-05-21T15:56:10.230Z,32.40
2017-05-21T15:58:39.237Z,33.00
2017-05-21T16:01:08.259Z,33.50
2017-05-21T16:03:37.323Z,33.50
2017-05-21T16:06:06.434Z,33.80
2017-05-21T16:08:35.517Z,34.00
2017-05-21T16:11:04.621Z,34.00
2017-05-21T16:13:33.663Z,34.40
2017-05-21T16:16:02.662Z,34.10
2017-05-21T16:18:31.713Z,34.00
2017-05-21T16:21:00.808Z,33.90
2017-05-21T16:23:29.805Z,34.30
2017-05-21T16:25:58.878Z,34.20
2017-05-21T16:28:27.933Z,34.60
2017-05-21T16:30:56.949Z,34.90
2017-05-21T16:33:26.013Z,34.80
2017-05-21T16:35:55.035Z,34.70
2017-05-21T16:38:24.050Z,34.60
2017-05-21T16:40:53.135Z,35.00
2017-05-21T16:43:22.148Z,35.30
2017-05-21T16:45:51.271Z,35.40
2017-05-21T16:48:20.265Z,35.60
2017-05-21T16:50:49.285Z,35.80
2017-05-21T16:53:18.419Z,36.00
2017-05-21T16:55:47.465Z,35.10
2017-05-21T16:58:16.517Z,35.80
2017-05-21T17:00:45.528Z,35.70
2017-05-21T17:03:14.685Z,35.20
2017-05-21T17:05:43.704Z,35.60
2017-05-21T17:08:12.795Z,35.20
2017-05-21T17:10:41.872Z,35.30
2017-05-21T17:13:10.964Z,35.80
2017-05-21T17:15:39.981Z,36.00
2017-05-21T17:18:09.047Z,36.00
2017-05-21T17:20:38.099Z,36.50
2017-05-21T17:23:07.090Z,36.60
2017-05-21T17:25:36.154Z,37.00
2017-05-21T17:28:05.166Z,36.50
2017-05-21T17:30:34.185Z,36.50
2017-05-21T17:33:03.250Z,36.70
2017-05-21T17:35:32.261Z,37.00
2017-05-21T17:38:01.289Z,37.30
2017-05-21T17:40:30.347Z,37.10
2017-05-21T17:42:59.385Z,37.20
2017-05-21T17:45:28.415Z,37.30
2017-05-21T17:47:57.458Z,37.40
2017-05-21T17:50:26.481Z,37.80
2017-05-21T17:52:55.513Z,37.60
2017-05-21T17:55:24.657Z,37.90
2017-05-21T17:57:53.687Z,38.10
2017-05-21T18:00:22.789Z,38.20
2017-05-21T18:02:51.858Z,38.80
2017-05-21T18:05:20.887Z,38.40
2017-05-21T18:07:49.915Z,38.90
2017-05-21T18:10:18.980Z,38.60
2017-05-21T18:12:48.010Z,38.90
2017-05-21T18:15:17.036Z,39.10
2017-05-21T18:17:46.198Z,39.20
2017-05-21T18:20:15.218Z,39.30
2017-05-21T18:22:44.237Z,39.30
2017-05-21T18:25:13.283Z,39.30
2017-05-21T18:30:17.710Z,39.40
2017-05-21T18:32:46.732Z,39.40
2017-05-21T18:35:15.773Z,39.60
2017-05-21T18:37:44.836Z,39.60
2017-05-21T18:40:13.958Z,39.40
2017-05-21T18:42:42.980Z,39.70
2017-05-21T18:45:12.036Z,39.60
2017-05-21T18:47:41.068Z,39.70
2017-05-21T18:50:10.084Z,39.60
2017-05-21T18:52:39.139Z,39.70
2017-05-21T18:55:08.170Z,39.70
2017-05-21T18:57:37.188Z,40.00
2017-05-21T19:00:06.231Z,40.20
2017-05-21T19:02:35.238Z,40.40
2017-05-21T19:05:04.261Z,40.60
2017-05-21T19:07:33.321Z,40.80
2017-05-21T19:10:02.331Z,41.50
2017-05-21T19:12:31.352Z,41.60
2017-05-21T19:15:00.385Z,42.30
2017-05-21T19:17:29.394Z,42.60
2017-05-21T19:19:58.408Z,43.00
2017-05-21T19:22:27.454Z,44.10
2017-05-21T19:24:56.465Z,44.30
2017-05-21T19:27:25.489Z,44.60
2017-05-21T19:29:54.556Z,44.80
2017-05-21T19:32:24.064Z,45.00
2017-05-21T19:34:53.094Z,44.80
2017-05-21T19:37:22.415Z,45.10
2017-05-21T19:39:51.434Z,45.40
2017-05-21T19:42:20.457Z,45.20
2017-05-21T19:44:49.561Z,45.20
2017-05-21T19:47:18.572Z,45.20
2017-05-21T19:49:47.679Z,45.10
2017-05-21T19:52:16.726Z,45.00
2017-05-21T19:54:45.839Z,45.00
2017-05-21T19:57:14.854Z,45.30
2017-05-21T19:59:44.152Z,45.30
2017-05-21T20:02:13.321Z,45.90
2017-05-21T20:04:42.549Z,46.30
2017-05-21T20:07:11.717Z,46.40
2017-05-21T20:09:40.849Z,46.00
2017-05-21T20:12:10.033Z,46.20
2017-05-21T20:14:39.256Z,46.50
2017-05-21T20:17:08.274Z,46.90
2017-05-21T20:19:37.319Z,46.60
2017-05-21T20:22:06.371Z,46.50
2017-05-21T20:24:35.401Z,46.70
2017-05-21T20:27:04.410Z,46.50
2017-05-21T20:29:33.560Z,46.50
2017-05-21T20:32:02.578Z,46.60
2017-05-21T20:34:31.683Z,46.60
2017-05-21T20:37:00.721Z,46.80
2017-05-21T20:39:29.743Z,47.00
2017-05-21T20:41:58.743Z,47.10
2017-05-21T20:44:27.844Z,47.00
2017-05-21T20:46:56.917Z,47.10
2017-05-21T20:49:25.948Z,47.40
2017-05-21T20:51:55.088Z,47.50
2017-05-21T20:54:24.093Z,47.40
2017-05-21T20:56:53.099Z,47.50
2017-05-21T20:59:22.167Z,47.60
2017-05-21T21:01:51.278Z,47.60
2017-05-21T21:04:20.382Z,47.70
2017-05-21T21:06:49.438Z,48.00
2017-05-21T21:09:18.567Z,48.00
2017-05-21T21:11:47.605Z,48.20
2017-05-21T21:14:16.699Z,48.00
2017-05-21T21:16:45.750Z,47.90
2017-05-21T21:19:14.770Z,47.90
2017-05-21T21:21:43.818Z,48.10
2017-05-21T21:24:12.929Z,48.20
2017-05-21T21:26:42.127Z,48.40
2017-05-21T21:29:11.166Z,48.60
2017-05-21T21:31:40.202Z,49.30
2017-05-21T21:34:09.308Z,48.90
2017-05-21T21:36:38.367Z,48.70
2017-05-21T21:39:07.396Z,48.90
2017-05-21T21:41:36.407Z,49.20
2017-05-21T21:44:05.481Z,49.30
2017-05-21T21:46:34.492Z,49.30
2017-05-21T21:49:03.574Z,49.50
2017-05-21T21:51:32.630Z,49.60
2017-05-21T21:54:01.649Z,49.70
2017-05-21T21:56:30.665Z,49.70
2017-05-21T21:58:59.799Z,49.80
2017-05-21T22:01:28.836Z,49.70
2017-05-21T22:03:57.928Z,49.90
2017-05-21T22:06:26.977Z,49.90
2017-05-21T22:08:56.018Z,50.00
2017-05-21T22:11:25.055Z,50.00
2017-05-21T22:13:54.108Z,50.20
2017-05-21T22:16:23.121Z,50.30
2017-05-21T22:18:52.139Z,50.30
2017-05-21T22:21:21.292Z,50.50
2017-05-21T22:23:50.305Z,50.70
2017-05-21T22:26:19.329Z,51.00
2017-05-21T22:28:48.373Z,51.70
2017-05-21T22:31:17.387Z,51.50
2017-05-21T22:33:46.614Z,51.50
2017-05-21T22:36:15.675Z,51.30
2017-05-21T22:38:44.712Z,51.00
2017-05-21T22:41:13.796Z,51.00
2017-05-21T22:43:42.939Z,51.00
2017-05-21T22:46:12.039Z,51.00
2017-05-21T22:48:41.042Z,51.00
2017-05-21T22:51:10.096Z,51.00
2017-05-21T22:53:39.113Z,51.20
2017-05-21T22:56:08.126Z,51.00
2017-05-21T22:58:37.193Z,51.10
2017-05-21T23:01:06.296Z,51.10
2017-05-21T23:03:35.297Z,51.10
2017-05-21T23:06:04.340Z,51.20
2017-05-21T23:08:33.351Z,51.20
2017-05-21T23:11:02.370Z,51.30
2017-05-21T23:13:31.464Z,51.30
2017-05-21T23:16:00.473Z,51.40
2017-05-21T23:18:29.484Z,51.50
2017-05-21T23:20:58.545Z,51.60
2017-05-21T23:23:27.585Z,51.50
2017-05-21T23:25:55.835Z,51.50
2017-05-21T23:28:24.898Z,52.30
2017-05-21T23:30:53.914Z,52.50
2017-05-21T23:33:23.024Z,52.20
